Stations météo

réclame
Mon MeteoGroup
Monte S. Angelo, Italie (16258): Température de l'air & dewpoint: 16.02.2018 04:00:00 - 22.02.2018 04:00:00 (CET)Monte S. Angelo, Italie (16258): Vitesse du vent: 16.02.2018 04:00:00 - 22.02.2018 04:00:00 (CET)Monte S. Angelo, Italie (16258): Direction du vent: 16.02.2018 04:00:00 - 22.02.2018 04:00:00 (CET)Monte S. Angelo, Italie (16258): visibility: 16.02.2018 04:00:00 - 22.02.2018 04:00:00 (CET)
Date & Time tt [°C] td [°C] ff [km/h] ff [knt] dd vv [km]
22.02.2018 04:00:00 - - - - - -
22.02.2018 03:00:00 1,4 0,7 16 9 S 10
22.02.2018 02:00:00 1,4 0,7 15 8 S -
22.02.2018 01:00:00 2,8 2,1 9 5 SSE -
22.02.2018 00:00:00 2,0 1,3 9 5 SSE -
21.02.2018 23:00:00 1,0 0,3 8 4 ESE -
21.02.2018 22:00:00 1,0 0,3 4 2 WNW -
21.02.2018 21:00:00 1,0 0,3 8 4 W -
21.02.2018 20:00:00 1,0 0,3 9 5 W -
21.02.2018 19:00:00 0,8 0,1 13 7 W -
21.02.2018 18:00:00 1,0 0,3 13 7 W -
21.02.2018 17:00:00 1,0 0,3 9 5 SSW -
21.02.2018 16:00:00 1,0 0,3 15 8 W -
21.02.2018 15:00:00 1,0 0,3 18 10 W -
21.02.2018 14:00:00 1,8 1,1 16 9 W -
21.02.2018 13:00:00 3,4 2,7 11 6 WNW -
21.02.2018 12:00:00 3,0 2,3 8 4 NNE -
21.02.2018 11:00:00 2,4 1,7 9 5 N -
21.02.2018 10:00:00 2,0 1,3 11 6 N -
21.02.2018 09:00:00 1,8 1,1 8 4 NW -
21.02.2018 08:00:00 1,6 0,9 8 4 NNW -
21.02.2018 07:00:00 1,6 0,9 5 3 NE -
21.02.2018 06:00:00 1,6 0,9 8 4 NE -
21.02.2018 05:00:00 1,8 1,1 9 5 NE -
21.02.2018 04:00:00 1,6 0,9 8 4 NE -
21.02.2018 03:00:00 1,6 0,9 8 4 NNE -
21.02.2018 02:00:00 1,6 0,9 11 6 NNE -
21.02.2018 01:00:00 1,8 1,1 41 22 NNE -
21.02.2018 00:00:00 2,4 1,7 4 2 NNE -
20.02.2018 23:00:00 2,8 2,1 11 6 NNE -
20.02.2018 22:00:00 3,2 2,5 11 6 N -
20.02.2018 21:00:00 3,2 2,5 9 5 NNE -
20.02.2018 20:00:00 3,0 2,3 15 8 NNE -
20.02.2018 19:00:00 3,2 2,5 11 6 N -
20.02.2018 18:00:00 3,4 2,7 9 5 NE -
20.02.2018 17:00:00 3,4 2,7 9 5 NE -
20.02.2018 16:00:00 3,4 2,7 15 8 NNE -
20.02.2018 15:00:00 3,6 2,9 9 5 NNE -
20.02.2018 14:00:00 3,6 2,9 8 4 NNE -
20.02.2018 13:00:00 3,6 2,9 4 2 E -
20.02.2018 12:00:00 3,8 3,1 5 3 ESE -
20.02.2018 11:00:00 3,6 2,9 5 3 SSE -
20.02.2018 10:00:00 2,8 2,1 4 2 SSE -
20.02.2018 09:00:00 2,8 2,1 9 5 SE -
20.02.2018 08:00:00 2,4 1,7 5 3 SE -
20.02.2018 07:00:00 2,4 1,7 5 3 S -
20.02.2018 06:00:00 2,0 1,3 5 3 SSE -
20.02.2018 05:00:00 2,2 1,5 5 3 WSW -
20.02.2018 04:00:00 2,2 1,5 4 2 WSW -
20.02.2018 03:00:00 2,2 1,5 9 5 W -
20.02.2018 02:00:00 2,4 1,7 11 6 W -
20.02.2018 01:00:00 2,4 1,7 15 8 W -
20.02.2018 00:00:00 2,4 1,7 15 8 W -
19.02.2018 23:00:00 2,6 1,9 18 10 W -
19.02.2018 22:00:00 2,8 2,1 16 9 W -
19.02.2018 21:00:00 2,8 2,1 16 9 W -
19.02.2018 20:00:00 2,8 1,8 18 10 W -
19.02.2018 19:00:00 2,8 1,3 16 9 W -
19.02.2018 18:00:00 3,0 1,4 21 11 W -
19.02.2018 17:00:00 3,2 1,7 11 6 W -
19.02.2018 16:00:00 3,2 1,7 13 7 WNW -
19.02.2018 15:00:00 3,4 1,9 11 6 WNW -
19.02.2018 14:00:00 4,2 2,6 15 8 W -
19.02.2018 13:00:00 4,4 2,6 8 4 WNW -
19.02.2018 12:00:00 4,4 2,7 8 4 WNW -
19.02.2018 11:00:00 4,6 3,1 8 4 W -
19.02.2018 10:00:00 4,4 2,7 8 4 WNW -
19.02.2018 09:00:00 4,2 3,3 9 5 WNW -
19.02.2018 08:00:00 4,2 3,3 9 5 WNW -
19.02.2018 07:00:00 4,4 2,6 5 3 W 12
19.02.2018 06:00:00 4,0 2,4 5 3 W 12
19.02.2018 05:00:00 4,0 2,5 8 4 W 10
19.02.2018 04:00:00 4,0 2,5 8 4 W 12
19.02.2018 03:00:00 4,0 2,5 8 4 W 12
19.02.2018 02:00:00 4,0 2,5 5 3 NW 12
19.02.2018 01:00:00 4,2 2,6 5 3 NW 12
19.02.2018 00:00:00 4,4 2,4 9 5 N 12
18.02.2018 23:00:00 4,8 2,3 9 5 N 12
18.02.2018 22:00:00 5,0 2,4 8 4 NNE 12
18.02.2018 21:00:00 5,4 2,6 4 2 NE 12
18.02.2018 20:00:00 5,4 2,6 8 4 E 12
18.02.2018 19:00:00 6,2 3,2 5 3 NNE 10
18.02.2018 18:00:00 6,2 3,0 4 2 W 10
18.02.2018 17:00:00 6,4 3,2 5 3 SW 10
18.02.2018 16:00:00 6,6 3,1 5 3 SE 12
18.02.2018 15:00:00 7,0 3,4 4 2 SSW 12
18.02.2018 14:00:00 6,8 3,2 5 3 S 15
18.02.2018 13:00:00 7,0 1,3 5 3 SSW 15
18.02.2018 12:00:00 6,8 0,7 9 5 S 15
18.02.2018 11:00:00 6,0 -1,9 11 6 SSE 15
18.02.2018 10:00:00 6,2 -3,2 13 7 S 15
18.02.2018 09:00:00 6,0 -5,0 13 7 SSE 15
18.02.2018 08:00:00 5,2 -4,4 16 9 SSE 15
18.02.2018 07:00:00 5,8 -4,1 15 8 S 12
18.02.2018 06:00:00 5,0 -0,4 16 9 S 10
18.02.2018 05:00:00 5,2 -1,9 11 6 SSE 10
18.02.2018 04:00:00 5,4 0,4 9 5 SSE 10
18.02.2018 03:00:00 5,4 -0,2 9 5 SSE 10
18.02.2018 02:00:00 5,8 -3,0 15 8 S 10
18.02.2018 01:00:00 6,0 -1,9 18 10 S 10
18.02.2018 00:00:00 6,6 -3,6 13 7 S 10
17.02.2018 23:00:00 6,0 -0,3 13 7 S 10
17.02.2018 22:00:00 5,4 -1,1 13 7 S 10
17.02.2018 21:00:00 5,0 -2,1 5 3 SSE 10
17.02.2018 20:00:00 5,2 -3,9 4 2 S 15
17.02.2018 19:00:00 6,0 -4,2 8 4 SSE 15
17.02.2018 18:00:00 6,0 -7,2 11 6 S 15
17.02.2018 17:00:00 6,6 -1,1 9 5 S 15
17.02.2018 16:00:00 7,4 -1,3 8 4 SSE 15
17.02.2018 15:00:00 8,2 1,8 8 4 SSE 15
17.02.2018 14:00:00 7,6 1,4 8 4 S 20
17.02.2018 13:00:00 7,8 1,4 9 5 S 20
17.02.2018 12:00:00 6,8 2,9 8 4 SSE 20
17.02.2018 11:00:00 6,6 2,7 8 4 SSE 20
17.02.2018 10:00:00 6,0 2,1 5 3 SSE 20
17.02.2018 09:00:00 5,0 1,1 5 3 SSE 20
17.02.2018 08:00:00 5,8 -15,4 4 2 SE 20
17.02.2018 07:00:00 5,2 -17,2 4 2 WSW 15
17.02.2018 06:00:00 5,4 -8,5 4 2 WNW 15
17.02.2018 05:00:00 4,6 -11,5 4 2 SSW 15
17.02.2018 04:00:00 4,4 -17,9 9 5 WNW 15
17.02.2018 03:00:00 5,0 -17,4 9 5 NW 15
17.02.2018 02:00:00 6,0 -15,3 11 6 NW 15
17.02.2018 01:00:00 6,4 -17,6 4 2 WNW 15
17.02.2018 00:00:00 6,2 -15,1 8 4 NW 15
16.02.2018 23:00:00 5,6 -16,9 11 6 WNW 15
16.02.2018 22:00:00 6,4 -14,4 8 4 NW 15
16.02.2018 21:00:00 6,2 -17,8 4 2 N 15
16.02.2018 20:00:00 6,4 -14,9 4 2 WNW 15
16.02.2018 19:00:00 6,2 -7,1 9 5 SW 15
16.02.2018 18:00:00 4,8 -2,3 8 4 SW 15
16.02.2018 17:00:00 5,8 -1,8 4 2 SSW 15
16.02.2018 16:00:00 6,4 0,3 5 3 SSW 15
16.02.2018 15:00:00 7,6 -2,7 4 2 N 15
16.02.2018 14:00:00 5,4 -3,7 4 2 WNW 15
16.02.2018 13:00:00 5,2 -2,9 5 3 W 15
16.02.2018 12:00:00 4,4 -1,8 8 4 W 15
16.02.2018 11:00:00 3,2 -1,2 8 4 W 15
16.02.2018 10:00:00 2,2 -0,9 13 7 NW 15
16.02.2018 09:00:00 1,6 -1,8 18 10 NNW 15
16.02.2018 08:00:00 1,0 -1,9 24 13 WNW 15
16.02.2018 07:00:00 0,8 -0,4 29 16 NNW 15
16.02.2018 06:00:00 0,6 -0,5 22 12 NNW 15
16.02.2018 05:00:00 0,4 -0,8 34 18 NNW 15
16.02.2018 04:00:00 0,4 -0,8 34 18 NNW 15

tt = Température de l'air
td = dewpoint
ff = Vitesse du vent
dd = Direction du vent
vv = visibility

stations d'obs. à proximité